sensor_id;sensor_type;location;lat;lon;timestamp;temperature;humidity
5786;DHT22;2919;48.630;9.000;2022-11-20T00:00:55;4.20;99.90
5786;DHT22;2919;48.630;9.000;2022-11-20T00:03:21;4.20;99.90
5786;DHT22;2919;48.630;9.000;2022-11-20T00:05:46;4.20;99.90
5786;DHT22;2919;48.630;9.000;2022-11-20T00:08:12;4.20;99.90
5786;DHT22;2919;48.630;9.000;2022-11-20T00:10:39;4.20;99.90
5786;DHT22;2919;48.630;9.000;2022-11-20T00:13:06;4.10;99.90
5786;DHT22;2919;48.630;9.000;2022-11-20T00:15:31;4.10;99.90
5786;DHT22;2919;48.630;9.000;2022-11-20T00:17:57;4.10;99.90
5786;DHT22;2919;48.630;9.000;2022-11-20T00:20:23;4.10;99.90
5786;DHT22;2919;48.630;9.000;2022-11-20T00:22:49;4.10;99.90
5786;DHT22;2919;48.630;9.000;2022-11-20T00:25:15;4.10;99.90
5786;DHT22;2919;48.630;9.000;2022-11-20T00:27:41;4.10;99.90
5786;DHT22;2919;48.630;9.000;2022-11-20T00:30:07;4.10;99.90
5786;DHT22;2919;48.630;9.000;2022-11-20T00:32:32;4.10;99.90
5786;DHT22;2919;48.630;9.000;2022-11-20T00:34:58;4.10;99.90
5786;DHT22;2919;48.630;9.000;2022-11-20T00:37:24;4.00;99.90
5786;DHT22;2919;48.630;9.000;2022-11-20T00:39:49;4.00;99.90
5786;DHT22;2919;48.630;9.000;2022-11-20T00:42:15;4.00;99.90
5786;DHT22;2919;48.630;9.000;2022-11-20T00:44:40;4.00;99.90
5786;DHT22;2919;48.630;9.000;2022-11-20T00:47:06;4.00;99.90
5786;DHT22;2919;48.630;9.000;2022-11-20T00:49:31;3.90;99.90
5786;DHT22;2919;48.630;9.000;2022-11-20T00:51:57;3.90;99.90
5786;DHT22;2919;48.630;9.000;2022-11-20T00:54:22;3.90;99.90
5786;DHT22;2919;48.630;9.000;2022-11-20T00:56:48;3.90;99.90
5786;DHT22;2919;48.630;9.000;2022-11-20T00:59:14;3.90;99.90
5786;DHT22;2919;48.630;9.000;2022-11-20T01:01:39;3.90;99.90
5786;DHT22;2919;48.630;9.000;2022-11-20T01:04:05;3.90;99.90
5786;DHT22;2919;48.630;9.000;2022-11-20T01:06:33;3.90;99.90
5786;DHT22;2919;48.630;9.000;2022-11-20T01:09:02;3.90;99.90
5786;DHT22;2919;48.630;9.000;2022-11-20T01:11:30;3.80;99.90
5786;DHT22;2919;48.630;9.000;2022-11-20T01:13:57;3.70;99.90
5786;DHT22;2919;48.630;9.000;2022-11-20T01:16:24;3.70;99.90
5786;DHT22;2919;48.630;9.000;2022-11-20T01:18:52;3.70;99.90
5786;DHT22;2919;48.630;9.000;2022-11-20T01:23:51;3.60;99.90
5786;DHT22;2919;48.630;9.000;2022-11-20T01:26:23;3.60;99.90
5786;DHT22;2919;48.630;9.000;2022-11-20T01:28:49;3.60;99.90
5786;DHT22;2919;48.630;9.000;2022-11-20T01:31:19;3.60;99.90
5786;DHT22;2919;48.630;9.000;2022-11-20T01:33:47;3.60;99.90
5786;DHT22;2919;48.630;9.000;2022-11-20T01:36:13;3.60;99.90
5786;DHT22;2919;48.630;9.000;2022-11-20T01:38:40;3.60;99.90
5786;DHT22;2919;48.630;9.000;2022-11-20T01:41:06;3.70;99.90
5786;DHT22;2919;48.630;9.000;2022-11-20T01:43:32;3.60;99.90
5786;DHT22;2919;48.630;9.000;2022-11-20T01:46:18;3.60;99.90
5786;DHT22;2919;48.630;9.000;2022-11-20T01:48:51;3.60;99.90
5786;DHT22;2919;48.630;9.000;2022-11-20T01:51:33;3.60;99.90
5786;DHT22;2919;48.630;9.000;2022-11-20T01:54:04;3.60;99.90
5786;DHT22;2919;48.630;9.000;2022-11-20T01:56:33;3.60;99.90
5786;DHT22;2919;48.630;9.000;2022-11-20T01:59:02;3.60;99.90
5786;DHT22;2919;48.630;9.000;2022-11-20T02:01:29;3.60;99.90
5786;DHT22;2919;48.630;9.000;2022-11-20T02:03:55;3.60;99.90
5786;DHT22;2919;48.630;9.000;2022-11-20T02:06:27;3.60;99.90
5786;DHT22;2919;48.630;9.000;2022-11-20T02:08:55;3.60;99.90
5786;DHT22;2919;48.630;9.000;2022-11-20T02:11:21;3.60;99.90
5786;DHT22;2919;48.630;9.000;2022-11-20T02:13:47;3.60;99.90
5786;DHT22;2919;48.630;9.000;2022-11-20T02:16:27;3.60;99.90
5786;DHT22;2919;48.630;9.000;2022-11-20T02:18:54;3.60;99.90
5786;DHT22;2919;48.630;9.000;2022-11-20T02:24:08;3.60;99.90
5786;DHT22;2919;48.630;9.000;2022-11-20T02:26:46;3.50;99.90
5786;DHT22;2919;48.630;9.000;2022-11-20T02:29:14;3.50;99.90
5786;DHT22;2919;48.630;9.000;2022-11-20T02:31:42;3.50;99.90
5786;DHT22;2919;48.630;9.000;2022-11-20T02:34:08;3.50;99.90
5786;DHT22;2919;48.630;9.000;2022-11-20T02:36:35;3.50;99.90
5786;DHT22;2919;48.630;9.000;2022-11-20T02:39:03;3.60;99.90
5786;DHT22;2919;48.630;9.000;2022-11-20T02:41:36;3.50;99.90
5786;DHT22;2919;48.630;9.000;2022-11-20T02:44:03;3.60;99.90
5786;DHT22;2919;48.630;9.000;2022-11-20T02:46:29;3.60;99.90
5786;DHT22;2919;48.630;9.000;2022-11-20T02:48:55;3.60;99.90
5786;DHT22;2919;48.630;9.000;2022-11-20T02:51:21;3.60;99.90
5786;DHT22;2919;48.630;9.000;2022-11-20T02:53:47;3.60;99.90
5786;DHT22;2919;48.630;9.000;2022-11-20T02:56:13;3.50;99.90
5786;DHT22;2919;48.630;9.000;2022-11-20T02:58:39;3.50;99.90
5786;DHT22;2919;48.630;9.000;2022-11-20T03:01:04;3.50;99.90
5786;DHT22;2919;48.630;9.000;2022-11-20T03:03:30;3.50;99.90
5786;DHT22;2919;48.630;9.000;2022-11-20T03:05:58;3.50;99.90
5786;DHT22;2919;48.630;9.000;2022-11-20T03:08:23;3.50;99.90
5786;DHT22;2919;48.630;9.000;2022-11-20T03:10:49;3.50;99.90
5786;DHT22;2919;48.630;9.000;2022-11-20T03:13:14;3.50;99.90
5786;DHT22;2919;48.630;9.000;2022-11-20T03:15:40;3.50;99.90
5786;DHT22;2919;48.630;9.000;2022-11-20T03:18:06;3.50;99.90
5786;DHT22;2919;48.630;9.000;2022-11-20T03:20:33;3.50;99.90
5786;DHT22;2919;48.630;9.000;2022-11-20T03:22:59;3.50;99.90
5786;DHT22;2919;48.630;9.000;2022-11-20T03:25:24;3.50;99.90
5786;DHT22;2919;48.630;9.000;2022-11-20T03:27:50;3.40;99.90
5786;DHT22;2919;48.630;9.000;2022-11-20T03:30:16;3.50;99.90
5786;DHT22;2919;48.630;9.000;2022-11-20T03:32:41;3.40;99.90
5786;DHT22;2919;48.630;9.000;2022-11-20T03:35:07;3.40;99.90
5786;DHT22;2919;48.630;9.000;2022-11-20T03:37:33;3.40;99.90
5786;DHT22;2919;48.630;9.000;2022-11-20T03:39:59;3.30;99.90
5786;DHT22;2919;48.630;9.000;2022-11-20T03:42:24;3.30;99.90
5786;DHT22;2919;48.630;9.000;2022-11-20T03:45:08;3.30;99.90
5786;DHT22;2919;48.630;9.000;2022-11-20T03:47:34;3.30;99.90
5786;DHT22;2919;48.630;9.000;2022-11-20T03:50:00;3.20;99.90
5786;DHT22;2919;48.630;9.000;2022-11-20T03:52:25;3.20;99.90
5786;DHT22;2919;48.630;9.000;2022-11-20T03:54:51;3.20;99.90
5786;DHT22;2919;48.630;9.000;2022-11-20T03:57:16;3.10;99.90
5786;DHT22;2919;48.630;9.000;2022-11-20T03:59:42;3.20;99.90
5786;DHT22;2919;48.630;9.000;2022-11-20T04:02:07;3.20;99.90
5786;DHT22;2919;48.630;9.000;2022-11-20T04:04:33;3.30;99.90
5786;DHT22;2919;48.630;9.000;2022-11-20T04:06:58;3.40;99.90
5786;DHT22;2919;48.630;9.000;2022-11-20T04:09:24;3.40;99.90
5786;DHT22;2919;48.630;9.000;2022-11-20T04:11:50;3.40;99.90
5786;DHT22;2919;48.630;9.000;2022-11-20T04:14:16;3.50;99.90
5786;DHT22;2919;48.630;9.000;2022-11-20T04:16:42;3.50;99.90
5786;DHT22;2919;48.630;9.000;2022-11-20T04:19:13;3.60;99.90
5786;DHT22;2919;48.630;9.000;2022-11-20T04:21:39;3.60;99.90
5786;DHT22;2919;48.630;9.000;2022-11-20T04:24:05;3.70;99.90
5786;DHT22;2919;48.630;9.000;2022-11-20T04:26:31;3.70;99.90
5786;DHT22;2919;48.630;9.000;2022-11-20T04:28:58;3.70;99.90
5786;DHT22;2919;48.630;9.000;2022-11-20T04:31:28;3.70;99.90
5786;DHT22;2919;48.630;9.000;2022-11-20T04:33:54;3.70;99.90
5786;DHT22;2919;48.630;9.000;2022-11-20T04:36:25;3.70;99.90
5786;DHT22;2919;48.630;9.000;2022-11-20T04:39:03;3.70;99.90
5786;DHT22;2919;48.630;9.000;2022-11-20T04:41:31;3.70;99.90
5786;DHT22;2919;48.630;9.000;2022-11-20T04:43:59;3.70;99.90
5786;DHT22;2919;48.630;9.000;2022-11-20T04:46:28;3.70;99.90
5786;DHT22;2919;48.630;9.000;2022-11-20T04:48:54;3.70;99.90
5786;DHT22;2919;48.630;9.000;2022-11-20T04:51:19;3.70;99.90
5786;DHT22;2919;48.630;9.000;2022-11-20T04:53:45;3.70;99.90
5786;DHT22;2919;48.630;9.000;2022-11-20T04:56:12;3.80;99.90
5786;DHT22;2919;48.630;9.000;2022-11-20T04:58:39;3.70;99.90
5786;DHT22;2919;48.630;9.000;2022-11-20T05:01:12;3.80;99.90
5786;DHT22;2919;48.630;9.000;2022-11-20T05:03:40;3.80;99.90
5786;DHT22;2919;48.630;9.000;2022-11-20T05:06:06;3.80;99.90
5786;DHT22;2919;48.630;9.000;2022-11-20T05:08:33;3.80;99.90
5786;DHT22;2919;48.630;9.000;2022-11-20T05:11:04;3.80;99.90
5786;DHT22;2919;48.630;9.000;2022-11-20T05:13:30;3.80;99.90
5786;DHT22;2919;48.630;9.000;2022-11-20T05:16:00;3.90;99.90
5786;DHT22;2919;48.630;9.000;2022-11-20T05:18:26;3.90;99.90
5786;DHT22;2919;48.630;9.000;2022-11-20T05:20:55;4.00;99.90
5786;DHT22;2919;48.630;9.000;2022-11-20T05:23:21;3.90;99.90
5786;DHT22;2919;48.630;9.000;2022-11-20T05:25:47;3.90;99.90
5786;DHT22;2919;48.630;9.000;2022-11-20T05:28:12;3.90;99.90
5786;DHT22;2919;48.630;9.000;2022-11-20T05:30:38;3.90;99.90
5786;DHT22;2919;48.630;9.000;2022-11-20T05:33:03;3.90;99.90
5786;DHT22;2919;48.630;9.000;2022-11-20T05:35:29;3.90;99.90
5786;DHT22;2919;48.630;9.000;2022-11-20T05:37:54;3.80;99.90
5786;DHT22;2919;48.630;9.000;2022-11-20T05:40:20;3.80;99.90
5786;DHT22;2919;48.630;9.000;2022-11-20T05:42:46;3.80;99.90
5786;DHT22;2919;48.630;9.000;2022-11-20T05:45:11;3.80;99.90
5786;DHT22;2919;48.630;9.000;2022-11-20T05:47:37;3.80;99.90
5786;DHT22;2919;48.630;9.000;2022-11-20T05:50:02;3.80;99.90
5786;DHT22;2919;48.630;9.000;2022-11-20T05:52:29;3.80;99.90
5786;DHT22;2919;48.630;9.000;2022-11-20T05:54:55;3.80;99.90
5786;DHT22;2919;48.630;9.000;2022-11-20T05:57:20;3.80;99.90
5786;DHT22;2919;48.630;9.000;2022-11-20T05:59:46;3.90;99.90
5786;DHT22;2919;48.630;9.000;2022-11-20T06:02:12;3.90;99.90
5786;DHT22;2919;48.630;9.000;2022-11-20T06:04:37;3.90;99.90
5786;DHT22;2919;48.630;9.000;2022-11-20T06:07:05;3.90;99.90
5786;DHT22;2919;48.630;9.000;2022-11-20T06:09:31;3.90;99.90
5786;DHT22;2919;48.630;9.000;2022-11-20T06:11:56;3.90;99.90
5786;DHT22;2919;48.630;9.000;2022-11-20T06:14:22;3.90;99.90
5786;DHT22;2919;48.630;9.000;2022-11-20T06:16:47;3.90;99.90
5786;DHT22;2919;48.630;9.000;2022-11-20T06:19:13;3.90;99.90
5786;DHT22;2919;48.630;9.000;2022-11-20T06:21:38;3.90;99.90
5786;DHT22;2919;48.630;9.000;2022-11-20T06:24:04;3.90;99.90
5786;DHT22;2919;48.630;9.000;2022-11-20T06:26:30;3.90;99.90
5786;DHT22;2919;48.630;9.000;2022-11-20T06:28:56;3.90;99.90
5786;DHT22;2919;48.630;9.000;2022-11-20T06:31:23;3.90;99.90
5786;DHT22;2919;48.630;9.000;2022-11-20T06:33:49;3.90;99.90
5786;DHT22;2919;48.630;9.000;2022-11-20T06:36:17;3.90;99.90
5786;DHT22;2919;48.630;9.000;2022-11-20T06:38:43;4.00;99.90
5786;DHT22;2919;48.630;9.000;2022-11-20T06:41:14;4.00;99.90
5786;DHT22;2919;48.630;9.000;2022-11-20T06:43:40;4.00;99.90
5786;DHT22;2919;48.630;9.000;2022-11-20T06:46:06;4.00;99.90
5786;DHT22;2919;48.630;9.000;2022-11-20T06:48:32;4.00;99.90
5786;DHT22;2919;48.630;9.000;2022-11-20T06:50:58;4.00;99.90
5786;DHT22;2919;48.630;9.000;2022-11-20T06:53:24;4.10;99.90
5786;DHT22;2919;48.630;9.000;2022-11-20T06:55:50;4.00;99.90
5786;DHT22;2919;48.630;9.000;2022-11-20T06:58:17;4.10;99.90
5786;DHT22;2919;48.630;9.000;2022-11-20T07:00:43;4.10;99.90
5786;DHT22;2919;48.630;9.000;2022-11-20T07:03:11;4.10;99.90
5786;DHT22;2919;48.630;9.000;2022-11-20T07:05:37;4.10;99.90
5786;DHT22;2919;48.630;9.000;2022-11-20T07:08:04;4.20;99.90
5786;DHT22;2919;48.630;9.000;2022-11-20T07:10:30;4.20;99.90
5786;DHT22;2919;48.630;9.000;2022-11-20T07:12:56;4.20;99.90
5786;DHT22;2919;48.630;9.000;2022-11-20T07:15:23;4.20;99.90
5786;DHT22;2919;48.630;9.000;2022-11-20T07:17:49;4.20;99.90
5786;DHT22;2919;48.630;9.000;2022-11-20T07:20:15;4.20;99.90
5786;DHT22;2919;48.630;9.000;2022-11-20T07:22:41;4.20;99.90
5786;DHT22;2919;48.630;9.000;2022-11-20T07:25:07;4.30;99.90
5786;DHT22;2919;48.630;9.000;2022-11-20T07:27:33;4.30;99.90
5786;DHT22;2919;48.630;9.000;2022-11-20T07:29:59;4.30;99.90
5786;DHT22;2919;48.630;9.000;2022-11-20T07:32:25;4.30;99.90
5786;DHT22;2919;48.630;9.000;2022-11-20T07:34:51;4.30;99.90
5786;DHT22;2919;48.630;9.000;2022-11-20T07:37:17;4.40;99.90
5786;DHT22;2919;48.630;9.000;2022-11-20T07:39:43;4.40;99.90
5786;DHT22;2919;48.630;9.000;2022-11-20T07:42:09;4.40;99.90
5786;DHT22;2919;48.630;9.000;2022-11-20T07:44:35;4.40;99.90
5786;DHT22;2919;48.630;9.000;2022-11-20T07:47:00;4.40;99.90
5786;DHT22;2919;48.630;9.000;2022-11-20T07:49:26;4.50;99.90
5786;DHT22;2919;48.630;9.000;2022-11-20T07:51:52;4.40;99.90
5786;DHT22;2919;48.630;9.000;2022-11-20T07:54:21;4.50;99.90
5786;DHT22;2919;48.630;9.000;2022-11-20T07:56:47;4.50;99.90
5786;DHT22;2919;48.630;9.000;2022-11-20T07:59:13;4.50;99.90
5786;DHT22;2919;48.630;9.000;2022-11-20T08:01:39;4.50;99.90
5786;DHT22;2919;48.630;9.000;2022-11-20T08:04:05;4.60;99.90
5786;DHT22;2919;48.630;9.000;2022-11-20T08:06:31;4.70;99.90
5786;DHT22;2919;48.630;9.000;2022-11-20T08:08:57;4.70;99.90
5786;DHT22;2919;48.630;9.000;2022-11-20T08:11:22;4.80;99.90
5786;DHT22;2919;48.630;9.000;2022-11-20T08:14:07;4.90;99.90
5786;DHT22;2919;48.630;9.000;2022-11-20T08:16:46;4.90;99.90
5786;DHT22;2919;48.630;9.000;2022-11-20T08:19:13;4.90;99.90
5786;DHT22;2919;48.630;9.000;2022-11-20T08:21:39;4.90;99.90
5786;DHT22;2919;48.630;9.000;2022-11-20T08:24:06;4.90;99.90
5786;DHT22;2919;48.630;9.000;2022-11-20T08:26:32;4.90;99.90
5786;DHT22;2919;48.630;9.000;2022-11-20T08:28:58;4.90;99.90
5786;DHT22;2919;48.630;9.000;2022-11-20T08:31:25;4.90;99.90
5786;DHT22;2919;48.630;9.000;2022-11-20T08:33:51;5.00;99.90
5786;DHT22;2919;48.630;9.000;2022-11-20T08:36:18;5.00;99.90
5786;DHT22;2919;48.630;9.000;2022-11-20T08:38:52;5.10;99.90
5786;DHT22;2919;48.630;9.000;2022-11-20T08:41:19;5.10;99.90
5786;DHT22;2919;48.630;9.000;2022-11-20T08:43:55;5.20;99.90
5786;DHT22;2919;48.630;9.000;2022-11-20T08:46:21;5.20;99.90
5786;DHT22;2919;48.630;9.000;2022-11-20T08:48:47;5.20;99.90
5786;DHT22;2919;48.630;9.000;2022-11-20T08:51:13;5.20;99.90
5786;DHT22;2919;48.630;9.000;2022-11-20T08:53:39;5.30;99.90
5786;DHT22;2919;48.630;9.000;2022-11-20T08:56:05;5.40;99.90
5786;DHT22;2919;48.630;9.000;2022-11-20T08:58:31;5.50;99.90
5786;DHT22;2919;48.630;9.000;2022-11-20T09:00:56;5.50;99.90
5786;DHT22;2919;48.630;9.000;2022-11-20T09:03:22;5.50;99.90
5786;DHT22;2919;48.630;9.000;2022-11-20T09:05:48;5.50;99.90
5786;DHT22;2919;48.630;9.000;2022-11-20T09:08:14;5.50;99.90
5786;DHT22;2919;48.630;9.000;2022-11-20T09:10:39;5.60;99.90
5786;DHT22;2919;48.630;9.000;2022-11-20T09:13:05;5.60;99.90
5786;DHT22;2919;48.630;9.000;2022-11-20T09:15:31;5.60;99.90
5786;DHT22;2919;48.630;9.000;2022-11-20T09:18:02;5.60;99.90
5786;DHT22;2919;48.630;9.000;2022-11-20T09:20:29;5.60;99.90
5786;DHT22;2919;48.630;9.000;2022-11-20T09:22:55;5.50;99.90
5786;DHT22;2919;48.630;9.000;2022-11-20T09:25:21;5.50;99.90
5786;DHT22;2919;48.630;9.000;2022-11-20T09:27:47;5.60;99.90
5786;DHT22;2919;48.630;9.000;2022-11-20T09:30:14;5.60;99.90
5786;DHT22;2919;48.630;9.000;2022-11-20T09:32:40;5.60;99.90
5786;DHT22;2919;48.630;9.000;2022-11-20T09:35:05;5.50;99.90
5786;DHT22;2919;48.630;9.000;2022-11-20T09:37:31;5.50;99.90
5786;DHT22;2919;48.630;9.000;2022-11-20T09:39:57;5.50;99.90
5786;DHT22;2919;48.630;9.000;2022-11-20T09:48:14;5.50;99.90
5786;DHT22;2919;48.630;9.000;2022-11-20T09:50:55;5.50;99.90
5786;DHT22;2919;48.630;9.000;2022-11-20T09:56:17;5.50;99.90
5786;DHT22;2919;48.630;9.000;2022-11-20T09:58:52;5.60;99.90
5786;DHT22;2919;48.630;9.000;2022-11-20T10:01:21;5.50;99.90
5786;DHT22;2919;48.630;9.000;2022-11-20T10:06:42;5.60;99.90
5786;DHT22;2919;48.630;9.000;2022-11-20T10:29:14;5.70;99.90
5786;DHT22;2919;48.630;9.000;2022-11-20T10:31:44;5.80;99.90
5786;DHT22;2919;48.630;9.000;2022-11-20T10:37:37;5.90;99.90
5786;DHT22;2919;48.630;9.000;2022-11-20T10:40:35;6.00;99.90
5786;DHT22;2919;48.630;9.000;2022-11-20T10:43:19;5.90;99.90
5786;DHT22;2919;48.630;9.000;2022-11-20T10:45:55;5.90;99.90
5786;DHT22;2919;48.630;9.000;2022-11-20T10:48:25;5.90;99.90
5786;DHT22;2919;48.630;9.000;2022-11-20T10:54:06;6.10;99.90
5786;DHT22;2919;48.630;9.000;2022-11-20T11:01:56;6.60;99.90
5786;DHT22;2919;48.630;9.000;2022-11-20T11:04:38;6.70;99.90
5786;DHT22;2919;48.630;9.000;2022-11-20T11:07:26;6.80;99.90
5786;DHT22;2919;48.630;9.000;2022-11-20T11:09:54;6.80;99.90
5786;DHT22;2919;48.630;9.000;2022-11-20T11:12:22;6.90;99.90
5786;DHT22;2919;48.630;9.000;2022-11-20T11:14:51;6.90;99.90
5786;DHT22;2919;48.630;9.000;2022-11-20T11:17:24;6.90;99.90
5786;DHT22;2919;48.630;9.000;2022-11-20T11:20:03;6.90;99.90
5786;DHT22;2919;48.630;9.000;2022-11-20T11:22:31;6.90;99.90
5786;DHT22;2919;48.630;9.000;2022-11-20T11:24:57;6.90;99.90
5786;DHT22;2919;48.630;9.000;2022-11-20T11:27:23;6.90;99.90
5786;DHT22;2919;48.630;9.000;2022-11-20T11:29:49;7.00;99.90
5786;DHT22;2919;48.630;9.000;2022-11-20T11:32:18;7.00;99.90
5786;DHT22;2919;48.630;9.000;2022-11-20T11:34:44;7.00;99.90
5786;DHT22;2919;48.630;9.000;2022-11-20T11:37:14;7.00;99.90
5786;DHT22;2919;48.630;9.000;2022-11-20T11:39:44;7.10;99.90
5786;DHT22;2919;48.630;9.000;2022-11-20T11:42:14;7.20;99.90
5786;DHT22;2919;48.630;9.000;2022-11-20T11:44:45;7.10;99.90
5786;DHT22;2919;48.630;9.000;2022-11-20T12:01:35;6.90;99.90
5786;DHT22;2919;48.630;9.000;2022-11-20T12:06:48;7.00;99.90
5786;DHT22;2919;48.630;9.000;2022-11-20T12:09:17;7.00;99.90
5786;DHT22;2919;48.630;9.000;2022-11-20T12:11:49;6.90;99.90
5786;DHT22;2919;48.630;9.000;2022-11-20T12:14:25;6.80;99.90
5786;DHT22;2919;48.630;9.000;2022-11-20T12:16:53;6.70;99.90
5786;DHT22;2919;48.630;9.000;2022-11-20T12:19:21;6.70;99.90
5786;DHT22;2919;48.630;9.000;2022-11-20T12:21:49;6.70;99.90
5786;DHT22;2919;48.630;9.000;2022-11-20T12:53:10;8.10;99.90
5786;DHT22;2919;48.630;9.000;2022-11-20T12:55:54;8.10;99.90
5786;DHT22;2919;48.630;9.000;2022-11-20T13:01:29;8.10;99.90
5786;DHT22;2919;48.630;9.000;2022-11-20T13:06:56;7.90;99.90
5786;DHT22;2919;48.630;9.000;2022-11-20T13:09:23;7.70;99.90
5786;DHT22;2919;48.630;9.000;2022-11-20T13:12:25;7.80;99.90
5786;DHT22;2919;48.630;9.000;2022-11-20T13:17:55;7.60;99.90
5786;DHT22;2919;48.630;9.000;2022-11-20T13:20:21;7.60;99.90
5786;DHT22;2919;48.630;9.000;2022-11-20T13:22:52;7.50;99.90
5786;DHT22;2919;48.630;9.000;2022-11-20T13:25:37;7.50;99.90
5786;DHT22;2919;48.630;9.000;2022-11-20T13:28:25;7.40;99.90
5786;DHT22;2919;48.630;9.000;2022-11-20T13:30:52;7.30;99.90
5786;DHT22;2919;48.630;9.000;2022-11-20T13:33:35;7.30;99.90
5786;DHT22;2919;48.630;9.000;2022-11-20T13:36:19;7.30;99.90
5786;DHT22;2919;48.630;9.000;2022-11-20T13:38:50;7.30;99.90
5786;DHT22;2919;48.630;9.000;2022-11-20T13:41:43;7.20;99.90
5786;DHT22;2919;48.630;9.000;2022-11-20T13:44:38;7.10;99.90
5786;DHT22;2919;48.630;9.000;2022-11-20T13:49:45;7.00;99.90
5786;DHT22;2919;48.630;9.000;2022-11-20T14:00:29;6.90;99.90
5786;DHT22;2919;48.630;9.000;2022-11-20T14:05:38;6.70;99.90
5786;DHT22;2919;48.630;9.000;2022-11-20T14:08:06;6.60;99.90
5786;DHT22;2919;48.630;9.000;2022-11-20T14:10:37;6.60;99.90
5786;DHT22;2919;48.630;9.000;2022-11-20T14:13:17;6.60;99.90
5786;DHT22;2919;48.630;9.000;2022-11-20T14:15:43;6.50;99.90
5786;DHT22;2919;48.630;9.000;2022-11-20T14:18:20;6.50;99.90
5786;DHT22;2919;48.630;9.000;2022-11-20T14:20:47;6.50;99.90
5786;DHT22;2919;48.630;9.000;2022-11-20T14:23:23;6.40;99.90
5786;DHT22;2919;48.630;9.000;2022-11-20T14:25:50;6.30;99.90
5786;DHT22;2919;48.630;9.000;2022-11-20T14:28:25;6.20;99.90
5786;DHT22;2919;48.630;9.000;2022-11-20T14:30:51;6.20;99.90
5786;DHT22;2919;48.630;9.000;2022-11-20T14:33:17;6.10;99.90
5786;DHT22;2919;48.630;9.000;2022-11-20T14:35:47;6.10;99.90
5786;DHT22;2919;48.630;9.000;2022-11-20T14:38:16;6.00;99.90
5786;DHT22;2919;48.630;9.000;2022-11-20T14:40:42;6.00;99.90
5786;DHT22;2919;48.630;9.000;2022-11-20T14:43:27;6.00;99.90
5786;DHT22;2919;48.630;9.000;2022-11-20T14:46:00;6.00;99.90
5786;DHT22;2919;48.630;9.000;2022-11-20T14:48:31;6.00;99.90
5786;DHT22;2919;48.630;9.000;2022-11-20T14:50:57;5.90;99.90
5786;DHT22;2919;48.630;9.000;2022-11-20T14:53:24;5.90;99.90
5786;DHT22;2919;48.630;9.000;2022-11-20T14:55:58;5.80;99.90
5786;DHT22;2919;48.630;9.000;2022-11-20T14:58:32;5.80;99.90
5786;DHT22;2919;48.630;9.000;2022-11-20T15:01:04;5.60;99.90
5786;DHT22;2919;48.630;9.000;2022-11-20T15:03:36;5.50;99.90
5786;DHT22;2919;48.630;9.000;2022-11-20T15:06:02;5.50;99.90
5786;DHT22;2919;48.630;9.000;2022-11-20T15:08:28;5.40;99.90
5786;DHT22;2919;48.630;9.000;2022-11-20T15:10:54;5.30;99.90
5786;DHT22;2919;48.630;9.000;2022-11-20T15:13:29;5.30;99.90
5786;DHT22;2919;48.630;9.000;2022-11-20T15:15:56;5.20;99.90
5786;DHT22;2919;48.630;9.000;2022-11-20T15:18:31;5.20;99.90
5786;DHT22;2919;48.630;9.000;2022-11-20T15:21:00;5.10;99.90
5786;DHT22;2919;48.630;9.000;2022-11-20T15:23:27;5.10;99.90
5786;DHT22;2919;48.630;9.000;2022-11-20T15:25:53;5.10;99.90
5786;DHT22;2919;48.630;9.000;2022-11-20T15:30:46;5.10;99.90
5786;DHT22;2919;48.630;9.000;2022-11-20T15:33:13;5.10;99.90
5786;DHT22;2919;48.630;9.000;2022-11-20T15:35:38;5.10;99.90
5786;DHT22;2919;48.630;9.000;2022-11-20T15:38:04;5.10;99.90
5786;DHT22;2919;48.630;9.000;2022-11-20T15:40:30;5.10;99.90
5786;DHT22;2919;48.630;9.000;2022-11-20T15:42:56;5.00;99.90
5786;DHT22;2919;48.630;9.000;2022-11-20T15:45:48;5.00;99.90
5786;DHT22;2919;48.630;9.000;2022-11-20T15:53:18;5.00;99.90
5786;DHT22;2919;48.630;9.000;2022-11-20T15:55:44;5.00;99.90
5786;DHT22;2919;48.630;9.000;2022-11-20T15:58:09;5.00;99.90
5786;DHT22;2919;48.630;9.000;2022-11-20T16:00:35;5.00;99.90
5786;DHT22;2919;48.630;9.000;2022-11-20T16:03:01;5.10;99.90
5786;DHT22;2919;48.630;9.000;2022-11-20T16:05:29;5.10;99.90
5786;DHT22;2919;48.630;9.000;2022-11-20T16:07:55;5.10;99.90
5786;DHT22;2919;48.630;9.000;2022-11-20T16:10:22;5.20;99.90
5786;DHT22;2919;48.630;9.000;2022-11-20T16:12:47;5.20;99.90
5786;DHT22;2919;48.630;9.000;2022-11-20T16:15:31;5.20;99.90
5786;DHT22;2919;48.630;9.000;2022-11-20T16:18:17;5.20;99.90
5786;DHT22;2919;48.630;9.000;2022-11-20T16:20:45;5.20;99.90
5786;DHT22;2919;48.630;9.000;2022-11-20T16:23:11;5.20;99.90
5786;DHT22;2919;48.630;9.000;2022-11-20T16:25:37;5.20;99.90
5786;DHT22;2919;48.630;9.000;2022-11-20T16:28:03;5.20;99.90
5786;DHT22;2919;48.630;9.000;2022-11-20T16:30:29;5.20;99.90
5786;DHT22;2919;48.630;9.000;2022-11-20T16:32:55;5.20;99.90
5786;DHT22;2919;48.630;9.000;2022-11-20T16:35:20;5.20;99.90
5786;DHT22;2919;48.630;9.000;2022-11-20T16:37:46;5.20;99.90
5786;DHT22;2919;48.630;9.000;2022-11-20T16:40:12;5.20;99.90
5786;DHT22;2919;48.630;9.000;2022-11-20T16:42:37;5.20;99.90
5786;DHT22;2919;48.630;9.000;2022-11-20T16:45:03;5.20;99.90
5786;DHT22;2919;48.630;9.000;2022-11-20T16:47:33;5.20;99.90
5786;DHT22;2919;48.630;9.000;2022-11-20T16:50:00;5.20;99.90
5786;DHT22;2919;48.630;9.000;2022-11-20T16:52:25;5.30;99.90
5786;DHT22;2919;48.630;9.000;2022-11-20T16:54:51;5.30;99.90
5786;DHT22;2919;48.630;9.000;2022-11-20T16:57:17;5.30;99.90
5786;DHT22;2919;48.630;9.000;2022-11-20T16:59:42;5.30;99.90
5786;DHT22;2919;48.630;9.000;2022-11-20T17:02:09;5.30;99.90
5786;DHT22;2919;48.630;9.000;2022-11-20T17:04:35;5.30;99.90
5786;DHT22;2919;48.630;9.000;2022-11-20T17:07:01;5.30;99.90
5786;DHT22;2919;48.630;9.000;2022-11-20T17:09:27;5.30;99.90
5786;DHT22;2919;48.630;9.000;2022-11-20T17:11:53;5.30;99.90
5786;DHT22;2919;48.630;9.000;2022-11-20T17:14:19;5.30;99.90
5786;DHT22;2919;48.630;9.000;2022-11-20T17:16:44;5.30;99.90
5786;DHT22;2919;48.630;9.000;2022-11-20T17:19:11;5.40;99.90
5786;DHT22;2919;48.630;9.000;2022-11-20T17:21:37;5.40;99.90
5786;DHT22;2919;48.630;9.000;2022-11-20T17:24:05;5.30;99.90
5786;DHT22;2919;48.630;9.000;2022-11-20T17:26:32;5.40;99.90
5786;DHT22;2919;48.630;9.000;2022-11-20T17:29:04;5.40;99.90
5786;DHT22;2919;48.630;9.000;2022-11-20T17:31:31;5.30;99.90
5786;DHT22;2919;48.630;9.000;2022-11-20T17:33:58;5.30;99.90
5786;DHT22;2919;48.630;9.000;2022-11-20T17:36:27;5.40;99.90
5786;DHT22;2919;48.630;9.000;2022-11-20T17:38:53;5.40;99.90
5786;DHT22;2919;48.630;9.000;2022-11-20T17:41:21;5.40;99.90
5786;DHT22;2919;48.630;9.000;2022-11-20T17:43:48;5.40;99.90
5786;DHT22;2919;48.630;9.000;2022-11-20T17:46:18;5.40;99.90
5786;DHT22;2919;48.630;9.000;2022-11-20T17:48:45;5.40;99.90
5786;DHT22;2919;48.630;9.000;2022-11-20T17:51:24;5.40;99.90
5786;DHT22;2919;48.630;9.000;2022-11-20T17:53:56;5.40;99.90
5786;DHT22;2919;48.630;9.000;2022-11-20T17:56:22;5.40;99.90
5786;DHT22;2919;48.630;9.000;2022-11-20T17:59:08;5.40;99.90
5786;DHT22;2919;48.630;9.000;2022-11-20T18:01:35;5.40;99.90
5786;DHT22;2919;48.630;9.000;2022-11-20T18:04:01;5.40;99.90
5786;DHT22;2919;48.630;9.000;2022-11-20T18:06:29;5.40;99.90
5786;DHT22;2919;48.630;9.000;2022-11-20T18:08:57;5.40;99.90
5786;DHT22;2919;48.630;9.000;2022-11-20T18:11:24;5.40;99.90
5786;DHT22;2919;48.630;9.000;2022-11-20T18:13:52;5.40;99.90
5786;DHT22;2919;48.630;9.000;2022-11-20T18:16:49;5.40;99.90
5786;DHT22;2919;48.630;9.000;2022-11-20T18:19:17;5.40;99.90
5786;DHT22;2919;48.630;9.000;2022-11-20T18:21:44;5.40;99.90
5786;DHT22;2919;48.630;9.000;2022-11-20T18:24:09;5.40;99.90
5786;DHT22;2919;48.630;9.000;2022-11-20T18:26:35;5.40;99.90
5786;DHT22;2919;48.630;9.000;2022-11-20T18:29:01;5.40;99.90